Steptoe Valley WMA, Nevada Weather observations

Data are for 10 minute period ending at time listed.
 Day   Time   Solar   Ave.   Ave.  Ave.  Vector  Max.   Baro.   Total    
  of    of     Rad.   Air    Rel.  Wind   Wind   Wind  Press.  Precip.   
Year   Day            Temp.  Hum.  Speed  Dir.   Gust                    
2014   (PST)  Kw/m2    F      %     mph   deg.    mph    mb.     in.     
-------------------------------------------------------------------------
 295    6:50   0.05   25.3    62    3.0   141     4.8   806.1    0.00 
 295    7:00   0.17   29.0    57    5.1   179     9.1   806.2    0.00 
 295    7:10   0.18   31.9    50    6.0   178     8.7   806.3    0.00 
 295    7:20   0.13   32.6    48    4.4   177     6.8   806.4    0.00 
 295    7:30   0.24   34.4    46    5.2   183     7.6   806.5    0.00 
 295    7:40   0.28   37.4    41    3.9   181     5.8   806.5    0.00 
 295    7:50   0.28   40.1    36    3.1   185     5.3   806.6    0.00 
 295    8:00   0.29   41.7    34    3.9   178     5.4   806.6    0.00 
 295    8:10   0.33   43.6    32    4.0   164     6.1   806.5    0.00 
 295    8:20   0.38   45.5    30    3.6   160     5.5   806.5    0.00 
 295    8:30   0.42   47.6    28    3.0   174     4.7   806.5    0.00 
 295    8:40   0.45   49.6    26    2.3   170     6.0   806.5    0.00 
 295    8:50   0.46   51.5    24    1.9   186     4.2   806.4    0.00 
 295    9:00   0.50   53.5    23    1.4   136     4.2   806.4    0.00 
 295    9:10   0.48   54.0    22    1.2   158     2.8   806.3    0.00 
 295    9:20   0.53   55.0    22    1.7   114     4.5   806.2    0.00 
 295    9:30   0.52   56.0    21    1.0    67     3.4   806.0    0.00 
 295    9:40   0.58   56.8    21    1.8   181     5.3   805.9    0.00 
 295    9:50   0.58   57.8    20    2.4   221     4.9   805.8    0.00 
 295   10:00   0.60   57.7    21    2.4   132     5.3   805.7    0.00 
 295   10:10   0.59   57.5    23    1.3    70     3.8   805.7    0.00 
 295   10:20   0.62   58.9    23    1.9   227     5.1   805.7    0.00 
 295   10:30   0.63   60.1    22    2.6    43     6.9   805.7    0.00 
 295   10:40   0.65   59.5    22    3.6   348     6.6   805.6    0.00 
 295   10:50   0.66   60.0    22    2.4   346     5.8   805.6    0.00 
 295   11:00   0.66   61.0    21    3.6   156     6.1   805.6    0.00 
 295   11:10   0.67   61.7    21    3.8   185     7.8   805.5    0.00 
 295   11:20   0.66   61.7    21    3.8   150    10.2   805.5    0.00 
 295   11:30   0.67   61.8    21    2.9   201     5.5   805.5    0.00 
 295   11:40   0.67   62.0    21    2.9     2     8.4   805.3    0.00 
 295   11:50   0.65   62.3    21    4.5   140     9.4   805.2    0.00 
 295   12:00   0.64   62.4    21    4.8   168     8.9   805.1    0.00 
 295   12:10   0.64   62.3    21    3.5   151    10.6   805.0    0.00 
 295   12:20   0.64   63.3    21    1.8   238     6.9   805.1    0.00 
 295   12:30   0.64   63.8    21    3.3   195     7.9   804.9    0.00 
 295   12:40   0.62   63.2    21    3.7    43     8.6   804.9    0.00 
 295   12:50   0.60   64.9    20    2.2    49     7.7   804.8    0.00 
 295   13:00   0.59   63.8    20    3.0    92     8.3   804.8    0.00 
 295   13:10   0.57   64.2    20    2.6    49     6.9   804.8    0.00 
 295   13:20   0.55   64.1    20    3.5   111     8.3   804.7    0.00 
 295   13:30   0.53   64.8    19    3.1    59     6.4   804.7    0.00 
 295   13:40   0.51   64.6    19    2.1    94     4.5   804.7    0.00 
 295   13:50   0.48   64.4    19    3.3    88     6.3   804.7    0.00 
 295   14:00   0.46   65.0    19    2.5    46     5.5   804.8    0.00 
 295   14:10   0.44   67.2    18    1.9   224     4.7   804.9    0.00 
 295   14:20   0.41   66.7    18    2.9    13     5.3   804.9    0.00 
 295   14:30   0.39   66.9    18    2.0   133     4.6   804.9    0.00 
 295   14:40   0.36   68.0    18    1.2   148     4.7   804.9    0.00 
 295   14:50   0.34   67.6    17    2.1   293     4.4   804.9    0.00 
 295   15:00   0.31   68.5    17    1.6   231     4.4   804.9    0.00 
 295   15:10   0.28   67.5    18    2.6   129     5.6   804.8    0.00 
 295   15:20   0.25   66.7    18    4.0   186     7.0   804.7    0.00 
 295   15:30   0.21   66.9    17    2.1   241     6.4   804.7    0.00 
 295   15:40   0.19   66.9    17    2.3   213     4.7   804.7    0.00 
 295   15:50   0.16   65.7    19    4.7   190     7.2   804.7    0.00 
 295   16:00   0.13   65.3    19    3.5   195     5.8   804.7    0.00 
 295   16:10   0.10   64.7    20    3.0   188     4.4   804.7    0.00 
 295   16:20   0.07   62.5    22    3.4   188     6.4   804.7    0.00 
 295   16:30   0.02   59.0    24    3.4   166     4.7   804.6    0.00 
 295   16:40   0.01   55.8    26    3.9   165     5.2   804.6    0.00 
 295   16:50   0.01   52.9    28    4.1   173     5.6   804.6    0.00 
 295   17:00   0.00   51.3    29    3.0   162     4.7   804.6    0.00 
 295   17:10   0.00   52.8    26    3.2   117     8.4   804.7    0.00 
 295   17:20   0.00   52.1    26    5.4    98     8.7   804.8    0.00 
 295   17:30   0.00   51.1    27    5.8   106     7.3   805.0    0.00 
 295   17:40   0.00   50.3    28    6.1   120     8.3   805.2    0.00 
 295   17:50   0.00   51.0    27    5.3   129     7.2   805.3    0.00 
 295   18:00   0.00   51.1    27    5.2   127     6.9   805.5    0.00 
 295   18:10   0.00   50.9    27    5.3   139     7.5   805.6    0.00 
 295   18:20   0.00   51.4    26    6.6   136     9.1   805.6    0.00 
 295   18:30   0.00   51.5    26    7.4   134     9.7   805.6    0.00 
 295   18:40   0.00   50.8    26    7.6   132    10.2   805.7    0.00 
 295   18:50   0.00   49.3    29    6.2   160     9.3   805.7    0.00 
 295   19:00   0.00   43.6    37    3.8   184     5.9   805.8    0.00 
 295   19:10   0.00   39.7    43    3.5   175     5.6   805.9    0.00 
 295   19:20   0.00   40.9    41    4.7   164     7.6   805.9    0.00 
 295   19:30   0.00   41.2    41    4.3   174     6.1   806.0    0.00 
 295   19:40   0.00   43.1    38    6.3   151     9.1   805.9    0.00 
 295   19:50   0.00   48.3    30    8.4   138    11.6   806.0    0.00 
 295   20:00   0.00   47.7    30    6.6   147     9.9   806.2    0.00 
 295   20:10   0.00   45.6    33    5.6   157     8.2   806.1    0.00 
 295   20:20   0.00   41.5    41    4.0   189     6.6   806.1    0.00 
 295   20:30   0.00   36.2    50    3.0   182     5.0   806.2    0.00 
 295   20:40   0.00   35.7    51    3.4   168     6.1   806.2    0.00 
 295   20:50   0.00   36.5    49    5.3   175     7.7   806.2    0.00 
 295   21:00   0.00   36.0    51    5.5   172     8.1   806.3    0.00 
 295   21:10   0.00   36.9    49    5.3   176     7.1   806.3    0.00 
 295   21:20   0.00   36.7    48    5.4   174     6.6   806.4    0.00 
 295   21:30   0.00   36.1    49    4.6   177     7.2   806.5    0.00 
 295   21:40   0.00   34.3    54    2.7   188     4.3   806.5    0.00 
 295   21:50   0.00   32.9    58    1.9   183     3.5   806.5    0.00 
 295   22:00   0.00   35.1    55    4.3   200     7.7   806.6    0.00 
 295   22:10   0.00   34.1    58    3.2   212     8.2   806.7    0.00 
 295   22:20   0.00   35.0    53    5.3   181     9.3   806.6    0.00 
 295   22:30   0.00   34.9    52    5.6   175     7.9   806.6    0.00 
 295   22:40   0.00   35.3    52    5.6   174     8.6   806.6    0.00 
 295   22:50   0.00   37.0    48    6.5   169    10.6   806.6    0.00 
 295   23:00   0.00   36.7    49    4.5   171     7.4   806.6    0.00 
 295   23:10   0.00   37.6    46    5.7   163     8.4   806.5    0.00 
 295   23:20   0.00   37.3    47    5.9   176     8.0   806.6    0.00 
 295   23:30   0.00   38.0    46    5.8   169     9.4   806.6    0.00 
 295   23:40   0.00   36.4    50    5.4   178     8.0   806.6    0.00 
 295   23:50   0.00   37.9    48    4.8   181     6.9   806.6    0.00 
 296    0:00   0.00   39.5    46    7.4   184    12.2   806.5    0.00 
 296    0:10   0.00   37.9    48    5.8   172     9.1   806.6    0.00 
 296    0:20   0.00   36.2    51    6.4   171     8.8   806.6    0.00 
 296    0:30   0.00   35.3    52    4.1   167     5.6   806.6    0.00 
 296    0:40   0.00   34.9    54    4.7   166     6.9   806.5    0.00 
 296    0:50   0.00   33.7    55    4.3   172     6.2   806.4    0.00 
 296    1:00   0.00   33.3    58    4.3   183     6.7   806.5    0.00 
 296    1:10   0.00   36.6    51    5.4   170     8.6   806.5    0.00 
 296    1:20   0.00   38.2    47    7.3   164    10.4   806.4    0.00 
 296    1:30   0.00   39.6    44    8.4   159    10.7   806.2    0.00 
 296    1:40   0.00   39.0    46    6.7   171     9.8   806.2    0.00 
 296    1:50   0.00   39.2    46    6.5   168     8.8   806.2    0.00 
 296    2:00   0.00   38.4    48    5.7   170     8.0   806.0    0.00 
 296    2:10   0.00   37.0    50    5.4   168    10.2   805.9    0.00 
 296    2:20   0.00   38.2    47    5.8   178     9.1   805.8    0.00 
 296    2:30   0.00   37.5    50    4.9   171     8.2   805.8    0.00 
 296    2:40   0.00   38.4    48    4.1   179     8.7   805.7    0.00 
 296    2:50   0.00   36.5    52    4.1   182     6.0   805.9    0.00 
 296    3:00   0.00   34.7    55    4.8   170     6.5   805.9    0.00 
 296    3:10   0.00   32.5    59    4.5   167     6.0   805.9    0.00 
 296    3:20   0.00   31.6    61    4.3   170     5.5   805.9    0.00 
 296    3:30   0.00   33.1    58    5.1   166     6.7   806.0    0.00 
 296    3:40   0.00   36.0    52    6.0   170     8.6   806.0    0.00 
 296    3:50   0.00   39.4    46    5.9   164     9.3   805.9    0.00 
 296    4:00   0.00   38.5    46    5.4   170     8.3   805.9    0.00 
 296    4:10   0.00   37.4    48    6.0   167     8.5   805.9    0.00 
 296    4:20   0.00   37.3    49    4.4   173     5.8   805.9    0.00 
 296    4:30   0.00   36.2    52    4.0   169     7.0   805.9    0.00 
 296    4:40   0.00   35.9    53    2.9   166     4.5   806.0    0.00 
 296    4:50   0.00   36.0    53    4.4   155     6.3   806.0    0.00 
 296    5:00   0.00   36.2    53    5.9   161     7.5   806.1    0.00 
 296    5:10   0.00   36.9    52    5.7   156     7.8   806.1    0.00 
 296    5:20   0.00   37.7    49    6.2   160     8.5   806.1    0.00 
 296    5:30   0.00   36.2    52    6.1   180     8.5   806.0    0.00 
 296    5:40   0.00   34.7    56    5.8   174    10.2   806.2    0.00 
 296    5:50   0.00   33.3    59    4.9   169     6.7   806.3    0.00 
 296    6:00   0.01   33.3    59    4.2   161     6.9   806.4    0.00 
 296    6:10   0.02   34.0    58    3.8   165     7.4   806.5    0.00 
 296    6:20   0.03   36.4    54    5.0   158     7.2   806.5    0.00 
 296    6:30   0.03   37.6    52    5.6   165     8.3   806.5    0.00 
 296    6:40   0.03   42.9    43    8.8   148    13.5   806.3    0.00 

Return to Steptoe Valley WMA graphs page.


Western Regional Climate Center,wrcc@dri.edu